sensor_id;sensor_type;location;lat;lon;timestamp;P1;durP1;ratioP1;P2;durP2;ratioP2
43413;SDS011;73638;49.676;8.606;2024-03-23T00:58:25;3.6223;;;5.095;;
43413;SDS011;73638;49.676;8.606;2024-03-23T01:03:32;3.6455;;;5.813;;
43413;SDS011;73638;49.676;8.606;2024-03-23T01:08:39;3.3132;;;5.5589;;
43413;SDS011;73638;49.676;8.606;2024-03-23T01:13:46;3.9368;;;5.4812;;
43413;SDS011;73638;49.676;8.606;2024-03-23T01:18:53;3.5944;;;5.3264;;
43413;SDS011;73638;49.676;8.606;2024-03-23T01:24:00;3.551;;;5.9732;;
43413;SDS011;73638;49.676;8.606;2024-03-23T01:29:06;3.6202;;;6.0319;;
43413;SDS011;73638;49.676;8.606;2024-03-23T01:34:13;3.8176;;;9.1569;;
43413;SDS011;73638;49.676;8.606;2024-03-23T01:39:20;3.788;;;5.9192;;
43413;SDS011;73638;49.676;8.606;2024-03-23T01:44:27;3.8429;;;6.6802;;
43413;SDS011;73638;49.676;8.606;2024-03-23T01:49:36;3.5736;;;5.1418;;
43413;SDS011;73638;49.676;8.606;2024-03-23T01:54:42;3.8988;;;5.7641;;
43413;SDS011;73638;49.676;8.606;2024-03-23T01:59:49;4.0259;;;8.2292;;
43413;SDS011;73638;49.676;8.606;2024-03-23T02:04:56;3.4977;;;6.4405;;
43413;SDS011;73638;49.676;8.606;2024-03-23T02:10:03;3.9594;;;7.1659;;
43413;SDS011;73638;49.676;8.606;2024-03-23T02:15:10;3.3939;;;4.8231;;
43413;SDS011;73638;49.676;8.606;2024-03-23T02:20:17;4.1869;;;7.2958;;
43413;SDS011;73638;49.676;8.606;2024-03-23T02:25:24;3.8272;;;6.6597;;
43413;SDS011;73638;49.676;8.606;2024-03-23T02:30:31;4.5312;;;6.4056;;
43413;SDS011;73638;49.676;8.606;2024-03-23T02:35:38;4.7325;;;6.7966;;
43413;SDS011;73638;49.676;8.606;2024-03-23T02:40:45;4.1451;;;8.2765;;
43413;SDS011;73638;49.676;8.606;2024-03-23T02:45:52;5.9396;;;18.6714;;
43413;SDS011;73638;49.676;8.606;2024-03-23T02:50:58;4.3885;;;7.0647;;
43413;SDS011;73638;49.676;8.606;2024-03-23T02:56:05;3.9967;;;7.3994;;
43413;SDS011;73638;49.676;8.606;2024-03-23T03:01:12;3.9413;;;5.6966;;
43413;SDS011;73638;49.676;8.606;2024-03-23T03:06:23;3.8449;;;8.3665;;
43413;SDS011;73638;49.676;8.606;2024-03-23T03:11:26;4.5147;;;9.3667;;
43413;SDS011;73638;49.676;8.606;2024-03-23T03:16:33;3.9865;;;6.4078;;
43413;SDS011;73638;49.676;8.606;2024-03-23T03:21:40;3.6628;;;6.188;;
43413;SDS011;73638;49.676;8.606;2024-03-23T03:26:46;4.4882;;;7.4478;;
43413;SDS011;73638;49.676;8.606;2024-03-23T03:31:53;3.9694;;;5.8689;;
43413;SDS011;73638;49.676;8.606;2024-03-23T03:37:00;4.5121;;;7.8768;;
43413;SDS011;73638;49.676;8.606;2024-03-23T03:42:07;4.2979;;;9.8132;;
43413;SDS011;73638;49.676;8.606;2024-03-23T03:47:14;4.3819;;;8.6744;;
43413;SDS011;73638;49.676;8.606;2024-03-23T03:52:21;4.3119;;;8.8066;;
43413;SDS011;73638;49.676;8.606;2024-03-23T03:57:28;4.5957;;;10.1271;;
43413;SDS011;73638;49.676;8.606;2024-03-23T04:02:40;4.6675;;;9.1582;;
43413;SDS011;73638;49.676;8.606;2024-03-23T04:07:41;5.1336;;;9.512;;
43413;SDS011;73638;49.676;8.606;2024-03-23T04:12:48;4.6911;;;7.7904;;
43413;SDS011;73638;49.676;8.606;2024-03-23T04:17:55;5.3831;;;9.8165;;
43413;SDS011;73638;49.676;8.606;2024-03-23T04:23:02;4.2086;;;7.5463;;
43413;SDS011;73638;49.676;8.606;2024-03-23T04:28:09;4.4869;;;10.4253;;
43413;SDS011;73638;49.676;8.606;2024-03-23T04:33:16;4.7013;;;11.141;;
43413;SDS011;73638;49.676;8.606;2024-03-23T04:38:23;4.7972;;;11.6643;;
43413;SDS011;73638;49.676;8.606;2024-03-23T04:43:30;5.2071;;;10.7909;;
43413;SDS011;73638;49.676;8.606;2024-03-23T04:48:36;4.2636;;;9.614;;
43413;SDS011;73638;49.676;8.606;2024-03-23T04:53:43;4.5127;;;10.0043;;
43413;SDS011;73638;49.676;8.606;2024-03-23T04:58:50;5.5884;;;10.6017;;
43413;SDS011;73638;49.676;8.606;2024-03-23T05:03:57;2.6196;;;4.6393;;
43413;SDS011;73638;49.676;8.606;2024-03-23T05:09:03;2.5831;;;4.6196;;
43413;SDS011;73638;49.676;8.606;2024-03-23T05:14:10;2.1776;;;5.6903;;
43413;SDS011;73638;49.676;8.606;2024-03-23T05:19:15;1.4646;;;2.8068;;
43413;SDS011;73638;49.676;8.606;2024-03-23T05:24:22;1.1314;;;1.6017;;
43413;SDS011;73638;49.676;8.606;2024-03-23T05:29:28;1.203;;;1.843;;
43413;SDS011;73638;49.676;8.606;2024-03-23T05:34:35;1.0887;;;2.5785;;
43413;SDS011;73638;49.676;8.606;2024-03-23T05:39:41;0.9143;;;1.2687;;
43413;SDS011;73638;49.676;8.606;2024-03-23T05:44:48;0.8635;;;1.6804;;
43413;SDS011;73638;49.676;8.606;2024-03-23T05:49:54;0.6387;;;6.2159;;
43413;SDS011;73638;49.676;8.606;2024-03-23T05:55:01;0.7057;;;1.0441;;
43413;SDS011;73638;49.676;8.606;2024-03-23T06:00:08;0.8665;;;1.2356;;
43413;SDS011;73638;49.676;8.606;2024-03-23T06:05:14;0.9124;;;2.1071;;
43413;SDS011;73638;49.676;8.606;2024-03-23T06:10:21;0.7585;;;0.8472;;
43413;SDS011;73638;49.676;8.606;2024-03-23T06:15:27;0.6765;;;1.2302;;
43413;SDS011;73638;49.676;8.606;2024-03-23T06:20:34;0.4234;;;0.3954;;
43413;SDS011;73638;49.676;8.606;2024-03-23T06:25:41;0.5733;;;1.5207;;
43413;SDS011;73638;49.676;8.606;2024-03-23T06:30:47;0.7028;;;1.547;;
43413;SDS011;73638;49.676;8.606;2024-03-23T06:35:54;0.383;;;0.578;;
43413;SDS011;73638;49.676;8.606;2024-03-23T06:41:02;0.8379;;;1.3043;;
43413;SDS011;73638;49.676;8.606;2024-03-23T06:46:07;0.3728;;;0.5596;;
43413;SDS011;73638;49.676;8.606;2024-03-23T06:51:14;0.2954;;;1.4196;;
43413;SDS011;73638;49.676;8.606;2024-03-23T06:56:21;0.1921;;;0.3285;;
43413;SDS011;73638;49.676;8.606;2024-03-23T07:01:27;0.2182;;;0.2703;;
43413;SDS011;73638;49.676;8.606;2024-03-23T07:06:34;0.1926;;;0.193;;
43413;SDS011;73638;49.676;8.606;2024-03-23T07:11:41;0.3951;;;0.9123;;
43413;SDS011;73638;49.676;8.606;2024-03-23T07:16:47;0.1715;;;0.3545;;
43413;SDS011;73638;49.676;8.606;2024-03-23T07:21:54;0.1976;;;0.1873;;
43413;SDS011;73638;49.676;8.606;2024-03-23T07:27:01;0.2291;;;0.2183;;
43413;SDS011;73638;49.676;8.606;2024-03-23T07:32:07;0.4115;;;0.3972;;
43413;SDS011;73638;49.676;8.606;2024-03-23T07:37:14;0.4166;;;0.5011;;
43413;SDS011;73638;49.676;8.606;2024-03-23T07:42:20;0.6456;;;1.982;;
43413;SDS011;73638;49.676;8.606;2024-03-23T07:47:27;0.7137;;;1.9567;;
43413;SDS011;73638;49.676;8.606;2024-03-23T07:52:34;0.4799;;;0.4592;;
43413;SDS011;73638;49.676;8.606;2024-03-23T07:57:41;0.7663;;;0.7569;;
43413;SDS011;73638;49.676;8.606;2024-03-23T08:02:50;1.1478;;;1.5287;;
43413;SDS011;73638;49.676;8.606;2024-03-23T08:07:56;0.7939;;;0.7726;;
43413;SDS011;73638;49.676;8.606;2024-03-23T08:13:03;0.6475;;;0.6967;;
43413;SDS011;73638;49.676;8.606;2024-03-23T08:18:10;0.8976;;;1.455;;
43413;SDS011;73638;49.676;8.606;2024-03-23T08:23:17;1.1015;;;1.2668;;
43413;SDS011;73638;49.676;8.606;2024-03-23T08:28:24;1.4622;;;1.7752;;
43413;SDS011;73638;49.676;8.606;2024-03-23T08:33:34;1.0442;;;1.1575;;
43413;SDS011;73638;49.676;8.606;2024-03-23T08:38:37;0.9976;;;2.5236;;
43413;SDS011;73638;49.676;8.606;2024-03-23T08:43:44;1.1659;;;2.3286;;
43413;SDS011;73638;49.676;8.606;2024-03-23T08:48:51;0.8637;;;0.8564;;
43413;SDS011;73638;49.676;8.606;2024-03-23T08:53:58;1.2404;;;2.8152;;
43413;SDS011;73638;49.676;8.606;2024-03-23T08:59:05;1.1884;;;3.1234;;
43413;SDS011;73638;49.676;8.606;2024-03-23T09:04:12;2.4666;;;3.8131;;
43413;SDS011;73638;49.676;8.606;2024-03-23T09:09:19;1.0263;;;1.6236;;
43413;SDS011;73638;49.676;8.606;2024-03-23T09:14:25;1.2465;;;5.0292;;
43413;SDS011;73638;49.676;8.606;2024-03-23T09:19:35;1.2325;;;2.0613;;
43413;SDS011;73638;49.676;8.606;2024-03-23T09:24:39;1.0546;;;2.9476;;
43413;SDS011;73638;49.676;8.606;2024-03-23T09:29:46;0.7451;;;2.185;;
43413;SDS011;73638;49.676;8.606;2024-03-23T09:34:55;0.7768;;;1.2486;;
43413;SDS011;73638;49.676;8.606;2024-03-23T09:40:08;1.2803;;;2.5138;;
43413;SDS011;73638;49.676;8.606;2024-03-23T09:45:11;1.0706;;;3.9844;;
43413;SDS011;73638;49.676;8.606;2024-03-23T09:50:16;1.0657;;;2.9686;;
43413;SDS011;73638;49.676;8.606;2024-03-23T09:55:22;1.0706;;;3.3364;;
43413;SDS011;73638;49.676;8.606;2024-03-23T10:00:37;0.7404;;;2.6636;;
43413;SDS011;73638;49.676;8.606;2024-03-23T10:05:45;0.9504;;;1.3653;;
43413;SDS011;73638;49.676;8.606;2024-03-23T10:10:43;0.7351;;;4.3198;;
43413;SDS011;73638;49.676;8.606;2024-03-23T10:15:54;0.8875;;;2.4436;;
43413;SDS011;73638;49.676;8.606;2024-03-23T10:21:06;0.9716;;;2.2225;;
43413;SDS011;73638;49.676;8.606;2024-03-23T10:26:19;1.0561;;;3.6258;;
43413;SDS011;73638;49.676;8.606;2024-03-23T10:31:11;1.5245;;;1.8792;;
43413;SDS011;73638;49.676;8.606;2024-03-23T10:36:17;0.5573;;;3.5391;;
43413;SDS011;73638;49.676;8.606;2024-03-23T10:41:25;0.7571;;;2.2288;;
43413;SDS011;73638;49.676;8.606;2024-03-23T10:46:31;0.4365;;;0.6664;;
43413;SDS011;73638;49.676;8.606;2024-03-23T10:51:38;0.7416;;;2.5076;;
43413;SDS011;73638;49.676;8.606;2024-03-23T10:56:45;0.4628;;;0.8798;;
43413;SDS011;73638;49.676;8.606;2024-03-23T11:01:55;0.6099;;;1.4147;;
43413;SDS011;73638;49.676;8.606;2024-03-23T11:06:58;0.6101;;;3.9487;;
43413;SDS011;73638;49.676;8.606;2024-03-23T11:12:17;0.7257;;;1.6195;;
43413;SDS011;73638;49.676;8.606;2024-03-23T11:17:12;0.5518;;;0.9836;;
43413;SDS011;73638;49.676;8.606;2024-03-23T11:22:17;0.5565;;;4.363;;
43413;SDS011;73638;49.676;8.606;2024-03-23T11:27:24;0.5142;;;0.8511;;
43413;SDS011;73638;49.676;8.606;2024-03-23T11:32:31;0.5033;;;1.4044;;
43413;SDS011;73638;49.676;8.606;2024-03-23T11:37:37;0.341;;;0.3382;;
43413;SDS011;73638;49.676;8.606;2024-03-23T11:42:44;0.2519;;;0.2874;;
43413;SDS011;73638;49.676;8.606;2024-03-23T11:48:01;0.4879;;;0.6255;;
43413;SDS011;73638;49.676;8.606;2024-03-23T11:53:14;0.3044;;;0.2978;;
43413;SDS011;73638;49.676;8.606;2024-03-23T11:58:04;0.3413;;;1.755;;
43413;SDS011;73638;49.676;8.606;2024-03-23T12:03:11;0.6352;;;1.3784;;
43413;SDS011;73638;49.676;8.606;2024-03-23T12:08:22;0.3779;;;0.4368;;
43413;SDS011;73638;49.676;8.606;2024-03-23T12:13:25;0.3991;;;1.8389;;
43413;SDS011;73638;49.676;8.606;2024-03-23T12:18:32;0.3044;;;0.3751;;
43413;SDS011;73638;49.676;8.606;2024-03-23T12:23:40;0.4881;;;2.1666;;
43413;SDS011;73638;49.676;8.606;2024-03-23T12:28:46;0.3201;;;0.5852;;
43413;SDS011;73638;49.676;8.606;2024-03-23T12:33:53;0.3464;;;0.6219;;
43413;SDS011;73638;49.676;8.606;2024-03-23T12:39:00;0.8082;;;2.8599;;
43413;SDS011;73638;49.676;8.606;2024-03-23T12:44:07;0.404;;;0.431;;
43413;SDS011;73638;49.676;8.606;2024-03-23T12:49:14;0.4302;;;1.5266;;
43413;SDS011;73638;49.676;8.606;2024-03-23T12:54:20;0.656;;;0.9602;;
43413;SDS011;73638;49.676;8.606;2024-03-23T12:59:27;0.5143;;;0.6934;;
43413;SDS011;73638;49.676;8.606;2024-03-23T13:04:34;0.3674;;;2.0703;;
43413;SDS011;73638;49.676;8.606;2024-03-23T13:09:41;0.4518;;;0.8318;;
43413;SDS011;73638;49.676;8.606;2024-03-23T13:14:48;0.3048;;;0.6367;;
43413;SDS011;73638;49.676;8.606;2024-03-23T13:19:55;0.2732;;;0.4139;;
43413;SDS011;73638;49.676;8.606;2024-03-23T13:25:02;0.1524;;;0.1811;;
43413;SDS011;73638;49.676;8.606;2024-03-23T13:30:09;0.2049;;;0.2227;;
43413;SDS011;73638;49.676;8.606;2024-03-23T13:35:15;0.4887;;;2.1546;;
43413;SDS011;73638;49.676;8.606;2024-03-23T13:40:22;0.2996;;;0.6322;;
43413;SDS011;73638;49.676;8.606;2024-03-23T13:45:29;0.205;;;0.2436;;
43413;SDS011;73638;49.676;8.606;2024-03-23T13:50:36;1.0931;;;9.1489;;
43413;SDS011;73638;49.676;8.606;2024-03-23T13:55:46;0.3206;;;1.2385;;
43413;SDS011;73638;49.676;8.606;2024-03-23T14:00:50;0.2575;;;0.2901;;
43413;SDS011;73638;49.676;8.606;2024-03-23T14:05:57;0.3731;;;0.9831;;
43413;SDS011;73638;49.676;8.606;2024-03-23T14:11:03;0.1104;;;0.1918;;
43413;SDS011;73638;49.676;8.606;2024-03-23T14:16:10;0.1051;;;0.1039;;
43413;SDS011;73638;49.676;8.606;2024-03-23T14:21:17;0.1788;;;0.2806;;
43413;SDS011;73638;49.676;8.606;2024-03-23T14:26:24;0.1788;;;0.239;;
43413;SDS011;73638;49.676;8.606;2024-03-23T14:31:30;0.1051;;;0.1039;;
43413;SDS011;73638;49.676;8.606;2024-03-23T14:36:37;0.2944;;;0.3528;;
43413;SDS011;73638;49.676;8.606;2024-03-23T14:36:39;0.2944;;;0.3528;;
43413;SDS011;73638;49.676;8.606;2024-03-23T14:41:45;0.1892;;;0.1867;;
43413;SDS011;73638;49.676;8.606;2024-03-23T14:46:52;0.2681;;;0.265;;
43413;SDS011;73638;49.676;8.606;2024-03-23T14:51:58;0.7352;;;2.7793;;
43413;SDS011;73638;49.676;8.606;2024-03-23T14:57:05;0.1364;;;0.2506;;
43413;SDS011;73638;49.676;8.606;2024-03-23T15:02:16;0.2463;;;1.6608;;
43413;SDS011;73638;49.676;8.606;2024-03-23T15:07:18;0.1781;;;0.1728;;
43413;SDS011;73638;49.676;8.606;2024-03-23T15:12:24;0.2043;;;0.2034;;
43413;SDS011;73638;49.676;8.606;2024-03-23T15:17:31;0.1833;;;0.2032;;
43413;SDS011;73638;49.676;8.606;2024-03-23T15:22:37;0.3138;;;0.767;;
43413;SDS011;73638;49.676;8.606;2024-03-23T15:27:44;0.1254;;;0.1207;;
43413;SDS011;73638;49.676;8.606;2024-03-23T15:32:50;0.2144;;;0.2069;;
43413;SDS011;73638;49.676;8.606;2024-03-23T15:37:57;0.2198;;;0.2984;;
43413;SDS011;73638;49.676;8.606;2024-03-23T15:43:04;0.199;;;0.2183;;
43413;SDS011;73638;49.676;8.606;2024-03-23T15:48:11;0.2198;;;0.4506;;
43413;SDS011;73638;49.676;8.606;2024-03-23T15:53:18;0.3869;;;0.4534;;
43413;SDS011;73638;49.676;8.606;2024-03-23T15:58:25;0.6433;;;1.1403;;
43413;SDS011;73638;49.676;8.606;2024-03-23T16:03:32;0.3402;;;0.5622;;
43413;SDS011;73638;49.676;8.606;2024-03-23T16:08:40;0.2463;;;0.2392;;
43413;SDS011;73638;49.676;8.606;2024-03-23T16:13:47;0.3301;;;0.4939;;
43413;SDS011;73638;49.676;8.606;2024-03-23T16:18:53;0.3041;;;1.011;;
43413;SDS011;73638;49.676;8.606;2024-03-23T16:23:59;0.6659;;;0.843;;
43413;SDS011;73638;49.676;8.606;2024-03-23T16:29:06;0.1416;;;0.138;;
43413;SDS011;73638;49.676;8.606;2024-03-23T16:34:12;0.2306;;;0.433;;
43413;SDS011;73638;49.676;8.606;2024-03-23T16:39:19;0.1415;;;0.1783;;
43413;SDS011;73638;49.676;8.606;2024-03-23T16:44:28;0.2619;;;0.4674;;
43413;SDS011;73638;49.676;8.606;2024-03-23T16:49:34;0.2094;;;0.2486;;
43413;SDS011;73638;49.676;8.606;2024-03-23T16:54:40;0.2984;;;0.5783;;
43413;SDS011;73638;49.676;8.606;2024-03-23T16:59:47;0.3557;;;1.1166;;
43413;SDS011;73638;49.676;8.606;2024-03-23T17:04:55;0.335;;;0.5676;;
43413;SDS011;73638;49.676;8.606;2024-03-23T17:10:00;0.4971;;;0.7888;;
43413;SDS011;73638;49.676;8.606;2024-03-23T17:15:07;0.2511;;;0.2424;;
43413;SDS011;73638;49.676;8.606;2024-03-23T17:20:14;0.2405;;;0.5898;;
43413;SDS011;73638;49.676;8.606;2024-03-23T17:25:20;0.4182;;;0.423;;
43413;SDS011;73638;49.676;8.606;2024-03-23T17:30:27;0.1725;;;0.3022;;
43413;SDS011;73638;49.676;8.606;2024-03-23T17:35:33;0.46;;;2.3669;;
43413;SDS011;73638;49.676;8.606;2024-03-23T17:40:40;0.3555;;;0.4485;;
43413;SDS011;73638;49.676;8.606;2024-03-23T17:45:46;0.136;;;0.1314;;
43413;SDS011;73638;49.676;8.606;2024-03-23T17:51:00;0.1832;;;0.2127;;
43413;SDS011;73638;49.676;8.606;2024-03-23T17:56:02;0.1831;;;0.1771;;
43413;SDS011;73638;49.676;8.606;2024-03-23T18:01:06;0.4395;;;1.3799;;
43413;SDS011;73638;49.676;8.606;2024-03-23T18:06:13;0.2354;;;0.2274;;
43413;SDS011;73638;49.676;8.606;2024-03-23T18:11:19;0.157;;;0.1517;;
43413;SDS011;73638;49.676;8.606;2024-03-23T18:16:26;0.1884;;;0.1821;;
43413;SDS011;73638;49.676;8.606;2024-03-23T18:21:32;0.2092;;;0.2576;;
43413;SDS011;73638;49.676;8.606;2024-03-23T18:26:39;0.9363;;;1.6767;;
43413;SDS011;73638;49.676;8.606;2024-03-23T18:31:45;0.4131;;;0.9935;;
43413;SDS011;73638;49.676;8.606;2024-03-23T18:36:54;0.319;;;2.7443;;
43413;SDS011;73638;49.676;8.606;2024-03-23T18:41:59;0.1987;;;0.1965;;
43413;SDS011;73638;49.676;8.606;2024-03-23T18:47:05;0.4495;;;0.8603;;
43413;SDS011;73638;49.676;8.606;2024-03-23T18:52:12;0.2403;;;0.2311;;
43413;SDS011;73638;49.676;8.606;2024-03-23T18:57:19;0.1933;;;0.6835;;
43413;SDS011;73638;49.676;8.606;2024-03-23T19:02:25;0.4598;;;0.6432;;
43413;SDS011;73638;49.676;8.606;2024-03-23T19:07:32;0.3396;;;0.3265;;
43413;SDS011;73638;49.676;8.606;2024-03-23T19:12:38;0.538;;;3.9763;;
43413;SDS011;73638;49.676;8.606;2024-03-23T19:17:45;0.585;;;2.0873;;
43413;SDS011;73638;49.676;8.606;2024-03-23T19:22:51;0.6004;;;0.8766;;
43413;SDS011;73638;49.676;8.606;2024-03-23T19:27:58;0.7258;;;2.0447;;
43413;SDS011;73638;49.676;8.606;2024-03-23T19:33:05;0.3551;;;0.5916;;
43413;SDS011;73638;49.676;8.606;2024-03-23T19:38:11;0.5797;;;0.7773;;
43413;SDS011;73638;49.676;8.606;2024-03-23T19:43:17;0.5483;;;0.8171;;
43413;SDS011;73638;49.676;8.606;2024-03-23T19:48:24;0.7208;;;1.8473;;
43413;SDS011;73638;49.676;8.606;2024-03-23T19:53:31;0.7154;;;2.6772;;
43413;SDS011;73638;49.676;8.606;2024-03-23T19:58:37;0.71;;;1.8486;;
43413;SDS011;73638;49.676;8.606;2024-03-23T20:03:44;0.4544;;;0.512;;
43413;SDS011;73638;49.676;8.606;2024-03-23T20:08:51;0.2768;;;0.3714;;
43413;SDS011;73638;49.676;8.606;2024-03-23T20:13:58;0.5065;;;4.4264;;
43413;SDS011;73638;49.676;8.606;2024-03-23T20:19:04;0.5641;;;0.7681;;
43413;SDS011;73638;49.676;8.606;2024-03-23T20:24:11;0.5903;;;3.4047;;
43413;SDS011;73638;49.676;8.606;2024-03-23T20:29:18;0.35;;;0.5574;;
43413;SDS011;73638;49.676;8.606;2024-03-23T20:34:24;0.4912;;;2.4887;;
43413;SDS011;73638;49.676;8.606;2024-03-23T20:39:31;0.6373;;;0.9238;;
43413;SDS011;73638;49.676;8.606;2024-03-23T20:44:38;0.4492;;;0.8332;;
43413;SDS011;73638;49.676;8.606;2024-03-23T20:49:44;0.6058;;;0.712;;
43413;SDS011;73638;49.676;8.606;2024-03-23T20:54:51;0.778;;;0.7971;;
43413;SDS011;73638;49.676;8.606;2024-03-23T20:59:57;0.668;;;0.8303;;
43413;SDS011;73638;49.676;8.606;2024-03-23T21:05:04;0.6997;;;1.9797;;
43413;SDS011;73638;49.676;8.606;2024-03-23T21:10:10;0.9866;;;2.3535;;
43413;SDS011;73638;49.676;8.606;2024-03-23T21:15:17;0.9294;;;3.0814;;
43413;SDS011;73638;49.676;8.606;2024-03-23T21:20:23;0.8608;;;1.0986;;
43413;SDS011;73638;49.676;8.606;2024-03-23T21:25:30;0.6363;;;0.7334;;
43413;SDS011;73638;49.676;8.606;2024-03-23T21:30:37;0.8185;;;1.3946;;
43413;SDS011;73638;49.676;8.606;2024-03-23T21:35:43;0.8865;;;1.4858;;
43413;SDS011;73638;49.676;8.606;2024-03-23T21:40:52;1.3299;;;2.5088;;
43413;SDS011;73638;49.676;8.606;2024-03-23T21:45:57;0.8657;;;1.0772;;
43413;SDS011;73638;49.676;8.606;2024-03-23T21:51:03;0.8964;;;0.8955;;
43413;SDS011;73638;49.676;8.606;2024-03-23T21:56:09;0.6672;;;1.11;;
43413;SDS011;73638;49.676;8.606;2024-03-23T22:01:16;0.5991;;;0.6558;;
43413;SDS011;73638;49.676;8.606;2024-03-23T22:06:23;0.6409;;;0.6312;;
43413;SDS011;73638;49.676;8.606;2024-03-23T22:11:29;0.8283;;;1.6341;;
43413;SDS011;73638;49.676;8.606;2024-03-23T22:16:36;0.526;;;0.7492;;
43413;SDS011;73638;49.676;8.606;2024-03-23T22:21:42;0.5364;;;0.5309;;
43413;SDS011;73638;49.676;8.606;2024-03-23T22:26:49;0.6093;;;0.764;;
43413;SDS011;73638;49.676;8.606;2024-03-23T22:31:55;0.615;;;0.8856;;
43413;SDS011;73638;49.676;8.606;2024-03-23T22:37:02;0.7085;;;3.0891;;
43413;SDS011;73638;49.676;8.606;2024-03-23T22:42:09;0.77;;;1.5323;;
43413;SDS011;73638;49.676;8.606;2024-03-23T22:47:15;0.7545;;;1.2464;;
43413;SDS011;73638;49.676;8.606;2024-03-23T22:52:22;0.6349;;;0.7422;;
43413;SDS011;73638;49.676;8.606;2024-03-23T22:57:28;0.6347;;;0.7759;;
43413;SDS011;73638;49.676;8.606;2024-03-23T23:02:34;0.5463;;;1.2309;;
43413;SDS011;73638;49.676;8.606;2024-03-23T23:07:41;0.4368;;;0.5331;;
43413;SDS011;73638;49.676;8.606;2024-03-23T23:12:48;0.4059;;;0.4108;;
43413;SDS011;73638;49.676;8.606;2024-03-23T23:17:54;0.4472;;;0.7648;;
43413;SDS011;73638;49.676;8.606;2024-03-23T23:23:01;0.3745;;;0.5285;;
43413;SDS011;73638;49.676;8.606;2024-03-23T23:28:08;0.5878;;;0.5731;;
43413;SDS011;73638;49.676;8.606;2024-03-23T23:33:14;0.7484;;;1.197;;
43413;SDS011;73638;49.676;8.606;2024-03-23T23:38:21;0.5203;;;0.692;;
43413;SDS011;73638;49.676;8.606;2024-03-23T23:43:27;0.5411;;;0.6775;;
43413;SDS011;73638;49.676;8.606;2024-03-23T23:48:34;0.775;;;1.6448;;
43413;SDS011;73638;49.676;8.606;2024-03-23T23:53:41;0.6914;;;1.439;;
43413;SDS011;73638;49.676;8.606;2024-03-23T23:58:47;0.3637;;;0.9394;;
